Canso, Canada
Current Conditions -  °F | °C
As of 9:00 AM on Tuesday 21 Oct 2014 (Local Time) from CYPD Reporting Station
Clear Clear  
Wind Chill:   Ceiling: Unl
Heat Index:   Visibility: 9mi
Dew Point:   Wind: 8mph
Humidity: 76%   Direction: 250°WSW
Pressure: 30.11"   Gusts: NA
Location:  45.34°N, 61°W
Report Text: CYPD 211200Z AUTO 25007KT 9SM CLR 05/01 A3011 RMK SLP201
Loading
Personal Weather Stations






























Interactive Weather Map
Tropical Storm Tracking
New forecast layout! Learn more

10-Day Weather Forecast

Advertisements
Track Severe Weather on mobile